sensor_id;sensor_type;location;lat;lon;timestamp;P1;durP1;ratioP1;P2;durP2;ratioP2
51654;SDS011;37732;53.106;7.030;2022-12-20T00:02:09;10.32;;;6.05;;
51654;SDS011;37732;53.106;7.030;2022-12-20T00:04:34;9.13;;;5.65;;
51654;SDS011;37732;53.106;7.030;2022-12-20T00:07:00;8.57;;;5.35;;
51654;SDS011;37732;53.106;7.030;2022-12-20T00:09:26;9.52;;;5.55;;
51654;SDS011;37732;53.106;7.030;2022-12-20T00:11:51;9.43;;;6.03;;
51654;SDS011;37732;53.106;7.030;2022-12-20T00:14:17;8.02;;;5.28;;
51654;SDS011;37732;53.106;7.030;2022-12-20T00:16:42;9.27;;;6.28;;
51654;SDS011;37732;53.106;7.030;2022-12-20T00:19:09;8.00;;;5.57;;
51654;SDS011;37732;53.106;7.030;2022-12-20T00:21:36;8.25;;;6.03;;
51654;SDS011;37732;53.106;7.030;2022-12-20T00:24:02;6.95;;;5.00;;
51654;SDS011;37732;53.106;7.030;2022-12-20T00:26:30;9.20;;;5.47;;
51654;SDS011;37732;53.106;7.030;2022-12-20T00:28:58;6.90;;;5.18;;
51654;SDS011;37732;53.106;7.030;2022-12-20T00:31:25;7.53;;;5.75;;
51654;SDS011;37732;53.106;7.030;2022-12-20T00:33:53;7.70;;;5.47;;
51654;SDS011;37732;53.106;7.030;2022-12-20T00:36:20;6.95;;;5.60;;
51654;SDS011;37732;53.106;7.030;2022-12-20T00:38:48;8.75;;;5.25;;
51654;SDS011;37732;53.106;7.030;2022-12-20T00:41:16;7.57;;;5.57;;
51654;SDS011;37732;53.106;7.030;2022-12-20T00:43:44;9.23;;;6.13;;
51654;SDS011;37732;53.106;7.030;2022-12-20T00:46:10;8.30;;;5.10;;
51654;SDS011;37732;53.106;7.030;2022-12-20T00:48:38;10.38;;;5.25;;
51654;SDS011;37732;53.106;7.030;2022-12-20T00:51:04;8.15;;;5.05;;
51654;SDS011;37732;53.106;7.030;2022-12-20T00:53:32;7.22;;;5.53;;
51654;SDS011;37732;53.106;7.030;2022-12-20T00:55:58;8.50;;;5.30;;
51654;SDS011;37732;53.106;7.030;2022-12-20T00:58:24;7.45;;;4.93;;
51654;SDS011;37732;53.106;7.030;2022-12-20T01:00:50;8.82;;;5.43;;
51654;SDS011;37732;53.106;7.030;2022-12-20T01:03:16;9.45;;;4.72;;
51654;SDS011;37732;53.106;7.030;2022-12-20T01:05:52;7.72;;;5.25;;
51654;SDS011;37732;53.106;7.030;2022-12-20T01:08:22;7.28;;;5.50;;
51654;SDS011;37732;53.106;7.030;2022-12-20T01:11:08;10.23;;;5.43;;
51654;SDS011;37732;53.106;7.030;2022-12-20T01:13:45;8.63;;;4.70;;
51654;SDS011;37732;53.106;7.030;2022-12-20T01:16:13;7.97;;;4.53;;
51654;SDS011;37732;53.106;7.030;2022-12-20T01:18:41;7.85;;;4.55;;
51654;SDS011;37732;53.106;7.030;2022-12-20T01:21:08;9.25;;;5.30;;
51654;SDS011;37732;53.106;7.030;2022-12-20T01:23:36;6.15;;;4.65;;
51654;SDS011;37732;53.106;7.030;2022-12-20T01:26:02;6.03;;;4.40;;
51654;SDS011;37732;53.106;7.030;2022-12-20T01:28:30;7.38;;;4.82;;
51654;SDS011;37732;53.106;7.030;2022-12-20T01:30:56;6.65;;;4.93;;
51654;SDS011;37732;53.106;7.030;2022-12-20T01:33:22;8.50;;;4.80;;
51654;SDS011;37732;53.106;7.030;2022-12-20T01:35:57;8.18;;;5.28;;
51654;SDS011;37732;53.106;7.030;2022-12-20T01:38:24;6.72;;;4.53;;
51654;SDS011;37732;53.106;7.030;2022-12-20T01:40:50;6.15;;;4.38;;
51654;SDS011;37732;53.106;7.030;2022-12-20T01:43:17;9.27;;;4.60;;
51654;SDS011;37732;53.106;7.030;2022-12-20T01:45:44;7.90;;;4.57;;
51654;SDS011;37732;53.106;7.030;2022-12-20T01:48:11;8.18;;;4.57;;
51654;SDS011;37732;53.106;7.030;2022-12-20T01:50:45;6.65;;;4.80;;
51654;SDS011;37732;53.106;7.030;2022-12-20T01:53:12;6.85;;;4.10;;
51654;SDS011;37732;53.106;7.030;2022-12-20T01:55:40;7.47;;;4.85;;
51654;SDS011;37732;53.106;7.030;2022-12-20T01:58:10;8.40;;;5.10;;
51654;SDS011;37732;53.106;7.030;2022-12-20T02:03:13;8.32;;;5.05;;
51654;SDS011;37732;53.106;7.030;2022-12-20T02:05:41;6.97;;;4.43;;
51654;SDS011;37732;53.106;7.030;2022-12-20T02:08:12;6.35;;;4.13;;
51654;SDS011;37732;53.106;7.030;2022-12-20T02:10:45;5.93;;;4.60;;
51654;SDS011;37732;53.106;7.030;2022-12-20T02:13:17;6.47;;;4.00;;
51654;SDS011;37732;53.106;7.030;2022-12-20T02:15:53;7.25;;;4.60;;
51654;SDS011;37732;53.106;7.030;2022-12-20T02:18:26;6.30;;;4.00;;
51654;SDS011;37732;53.106;7.030;2022-12-20T02:26:40;7.32;;;4.72;;
51654;SDS011;37732;53.106;7.030;2022-12-20T02:29:39;5.82;;;4.00;;
51654;SDS011;37732;53.106;7.030;2022-12-20T02:35:27;7.35;;;4.40;;
51654;SDS011;37732;53.106;7.030;2022-12-20T02:37:57;8.25;;;4.85;;
51654;SDS011;37732;53.106;7.030;2022-12-20T02:40:29;5.47;;;3.92;;
51654;SDS011;37732;53.106;7.030;2022-12-20T02:43:04;6.10;;;4.28;;
51654;SDS011;37732;53.106;7.030;2022-12-20T02:45:53;7.13;;;5.00;;
51654;SDS011;37732;53.106;7.030;2022-12-20T02:48:21;7.35;;;4.07;;
51654;SDS011;37732;53.106;7.030;2022-12-20T02:50:50;6.95;;;4.28;;
51654;SDS011;37732;53.106;7.030;2022-12-20T02:53:19;7.53;;;4.28;;
51654;SDS011;37732;53.106;7.030;2022-12-20T02:55:50;6.65;;;4.30;;
51654;SDS011;37732;53.106;7.030;2022-12-20T02:58:37;9.48;;;4.57;;
51654;SDS011;37732;53.106;7.030;2022-12-20T03:01:16;6.60;;;4.15;;
51654;SDS011;37732;53.106;7.030;2022-12-20T03:03:48;7.55;;;4.07;;
51654;SDS011;37732;53.106;7.030;2022-12-20T03:06:16;6.18;;;4.32;;
51654;SDS011;37732;53.106;7.030;2022-12-20T03:08:42;6.63;;;4.30;;
51654;SDS011;37732;53.106;7.030;2022-12-20T03:11:07;8.70;;;4.40;;
51654;SDS011;37732;53.106;7.030;2022-12-20T03:13:33;7.03;;;4.55;;
51654;SDS011;37732;53.106;7.030;2022-12-20T03:15:59;5.25;;;3.90;;
51654;SDS011;37732;53.106;7.030;2022-12-20T03:18:24;8.32;;;5.03;;
51654;SDS011;37732;53.106;7.030;2022-12-20T03:20:50;6.68;;;3.50;;
51654;SDS011;37732;53.106;7.030;2022-12-20T03:23:15;6.53;;;4.47;;
51654;SDS011;37732;53.106;7.030;2022-12-20T03:25:41;8.20;;;4.57;;
51654;SDS011;37732;53.106;7.030;2022-12-20T03:28:07;7.30;;;4.93;;
51654;SDS011;37732;53.106;7.030;2022-12-20T03:30:32;9.10;;;4.53;;
51654;SDS011;37732;53.106;7.030;2022-12-20T03:32:58;7.85;;;4.82;;
51654;SDS011;37732;53.106;7.030;2022-12-20T03:35:24;7.00;;;5.07;;
51654;SDS011;37732;53.106;7.030;2022-12-20T03:37:49;7.55;;;5.10;;
51654;SDS011;37732;53.106;7.030;2022-12-20T03:40:15;8.40;;;4.80;;
51654;SDS011;37732;53.106;7.030;2022-12-20T03:42:41;9.50;;;4.75;;
51654;SDS011;37732;53.106;7.030;2022-12-20T03:45:07;6.75;;;4.82;;
51654;SDS011;37732;53.106;7.030;2022-12-20T03:47:33;6.72;;;4.90;;
51654;SDS011;37732;53.106;7.030;2022-12-20T03:49:58;7.97;;;4.82;;
51654;SDS011;37732;53.106;7.030;2022-12-20T03:52:24;6.57;;;4.40;;
51654;SDS011;37732;53.106;7.030;2022-12-20T03:54:49;6.60;;;5.25;;
51654;SDS011;37732;53.106;7.030;2022-12-20T03:57:15;7.85;;;5.03;;
51654;SDS011;37732;53.106;7.030;2022-12-20T03:59:41;7.32;;;5.20;;
51654;SDS011;37732;53.106;7.030;2022-12-20T04:02:07;8.60;;;5.65;;
51654;SDS011;37732;53.106;7.030;2022-12-20T04:04:33;8.68;;;4.75;;
51654;SDS011;37732;53.106;7.030;2022-12-20T04:06:59;9.23;;;5.10;;
51654;SDS011;37732;53.106;7.030;2022-12-20T04:09:25;9.75;;;5.13;;
51654;SDS011;37732;53.106;7.030;2022-12-20T04:11:50;6.90;;;5.38;;
51654;SDS011;37732;53.106;7.030;2022-12-20T04:14:16;6.30;;;4.78;;
51654;SDS011;37732;53.106;7.030;2022-12-20T04:16:41;7.15;;;5.30;;
51654;SDS011;37732;53.106;7.030;2022-12-20T04:19:07;8.50;;;5.57;;
51654;SDS011;37732;53.106;7.030;2022-12-20T04:21:33;5.90;;;4.60;;
51654;SDS011;37732;53.106;7.030;2022-12-20T04:24:00;7.05;;;5.00;;
51654;SDS011;37732;53.106;7.030;2022-12-20T04:26:28;6.25;;;4.45;;
51654;SDS011;37732;53.106;7.030;2022-12-20T04:28:54;6.70;;;4.43;;
51654;SDS011;37732;53.106;7.030;2022-12-20T04:31:20;7.40;;;4.93;;
51654;SDS011;37732;53.106;7.030;2022-12-20T04:33:46;9.02;;;4.70;;
51654;SDS011;37732;53.106;7.030;2022-12-20T04:36:13;7.78;;;4.68;;
51654;SDS011;37732;53.106;7.030;2022-12-20T04:38:39;11.07;;;5.28;;
51654;SDS011;37732;53.106;7.030;2022-12-20T04:41:04;7.78;;;5.72;;
51654;SDS011;37732;53.106;7.030;2022-12-20T04:43:30;6.78;;;5.00;;
51654;SDS011;37732;53.106;7.030;2022-12-20T04:45:56;6.80;;;4.95;;
51654;SDS011;37732;53.106;7.030;2022-12-20T04:48:23;7.93;;;4.68;;
51654;SDS011;37732;53.106;7.030;2022-12-20T04:50:53;7.97;;;4.90;;
51654;SDS011;37732;53.106;7.030;2022-12-20T04:53:20;8.85;;;5.03;;
51654;SDS011;37732;53.106;7.030;2022-12-20T04:56:05;5.90;;;4.43;;
51654;SDS011;37732;53.106;7.030;2022-12-20T04:58:31;10.13;;;5.40;;
51654;SDS011;37732;53.106;7.030;2022-12-20T05:00:57;8.45;;;4.95;;
51654;SDS011;37732;53.106;7.030;2022-12-20T05:03:23;7.55;;;4.80;;
51654;SDS011;37732;53.106;7.030;2022-12-20T05:05:49;8.73;;;5.28;;
51654;SDS011;37732;53.106;7.030;2022-12-20T05:08:15;6.13;;;3.95;;
51654;SDS011;37732;53.106;7.030;2022-12-20T05:10:42;9.38;;;5.65;;
51654;SDS011;37732;53.106;7.030;2022-12-20T05:13:08;7.97;;;5.22;;
51654;SDS011;37732;53.106;7.030;2022-12-20T05:15:33;7.95;;;4.90;;
51654;SDS011;37732;53.106;7.030;2022-12-20T05:17:59;8.05;;;5.20;;
51654;SDS011;37732;53.106;7.030;2022-12-20T05:20:26;6.45;;;4.80;;
51654;SDS011;37732;53.106;7.030;2022-12-20T05:22:52;9.40;;;4.95;;
51654;SDS011;37732;53.106;7.030;2022-12-20T05:25:43;6.72;;;4.63;;
51654;SDS011;37732;53.106;7.030;2022-12-20T05:28:32;8.55;;;5.00;;
51654;SDS011;37732;53.106;7.030;2022-12-20T05:30:58;8.02;;;5.13;;
51654;SDS011;37732;53.106;7.030;2022-12-20T05:33:24;6.57;;;4.88;;
51654;SDS011;37732;53.106;7.030;2022-12-20T05:35:50;5.97;;;4.53;;
51654;SDS011;37732;53.106;7.030;2022-12-20T05:38:16;7.10;;;5.20;;
51654;SDS011;37732;53.106;7.030;2022-12-20T05:40:41;8.00;;;4.68;;
51654;SDS011;37732;53.106;7.030;2022-12-20T05:43:07;8.02;;;4.90;;
51654;SDS011;37732;53.106;7.030;2022-12-20T05:45:33;7.13;;;4.50;;
51654;SDS011;37732;53.106;7.030;2022-12-20T05:47:59;9.52;;;4.78;;
51654;SDS011;37732;53.106;7.030;2022-12-20T05:50:25;5.80;;;4.35;;
51654;SDS011;37732;53.106;7.030;2022-12-20T05:52:51;7.05;;;5.05;;
51654;SDS011;37732;53.106;7.030;2022-12-20T05:55:16;7.22;;;4.50;;
51654;SDS011;37732;53.106;7.030;2022-12-20T05:57:42;6.22;;;4.28;;
51654;SDS011;37732;53.106;7.030;2022-12-20T06:00:08;4.95;;;3.80;;
51654;SDS011;37732;53.106;7.030;2022-12-20T06:02:34;7.60;;;4.78;;
51654;SDS011;37732;53.106;7.030;2022-12-20T06:05:00;7.05;;;4.47;;
51654;SDS011;37732;53.106;7.030;2022-12-20T06:07:27;7.80;;;5.10;;
51654;SDS011;37732;53.106;7.030;2022-12-20T06:09:58;7.15;;;4.43;;
51654;SDS011;37732;53.106;7.030;2022-12-20T06:12:24;7.03;;;3.92;;
51654;SDS011;37732;53.106;7.030;2022-12-20T06:14:50;6.55;;;3.83;;
51654;SDS011;37732;53.106;7.030;2022-12-20T06:17:17;5.93;;;3.92;;
51654;SDS011;37732;53.106;7.030;2022-12-20T06:19:44;6.22;;;4.15;;
51654;SDS011;37732;53.106;7.030;2022-12-20T06:22:09;6.82;;;4.00;;
51654;SDS011;37732;53.106;7.030;2022-12-20T06:24:35;7.25;;;4.18;;
51654;SDS011;37732;53.106;7.030;2022-12-20T06:27:01;5.35;;;3.85;;
51654;SDS011;37732;53.106;7.030;2022-12-20T06:29:27;6.43;;;3.85;;
51654;SDS011;37732;53.106;7.030;2022-12-20T06:31:54;6.35;;;3.80;;
51654;SDS011;37732;53.106;7.030;2022-12-20T06:34:19;6.25;;;4.00;;
51654;SDS011;37732;53.106;7.030;2022-12-20T06:36:45;6.80;;;3.83;;
51654;SDS011;37732;53.106;7.030;2022-12-20T06:39:11;7.03;;;4.28;;
51654;SDS011;37732;53.106;7.030;2022-12-20T06:41:38;6.47;;;3.85;;
51654;SDS011;37732;53.106;7.030;2022-12-20T06:44:04;6.53;;;3.75;;
51654;SDS011;37732;53.106;7.030;2022-12-20T06:46:30;7.63;;;4.10;;
51654;SDS011;37732;53.106;7.030;2022-12-20T06:48:56;6.65;;;4.30;;
51654;SDS011;37732;53.106;7.030;2022-12-20T06:51:21;7.35;;;4.18;;
51654;SDS011;37732;53.106;7.030;2022-12-20T06:53:47;6.80;;;4.00;;
51654;SDS011;37732;53.106;7.030;2022-12-20T06:56:13;8.55;;;4.28;;
51654;SDS011;37732;53.106;7.030;2022-12-20T06:58:38;6.57;;;3.80;;
51654;SDS011;37732;53.106;7.030;2022-12-20T07:01:04;8.30;;;4.45;;
51654;SDS011;37732;53.106;7.030;2022-12-20T07:03:30;6.63;;;3.92;;
51654;SDS011;37732;53.106;7.030;2022-12-20T07:05:56;7.13;;;4.35;;
51654;SDS011;37732;53.106;7.030;2022-12-20T07:08:22;8.27;;;4.68;;
51654;SDS011;37732;53.106;7.030;2022-12-20T07:10:48;7.45;;;4.25;;
51654;SDS011;37732;53.106;7.030;2022-12-20T07:13:16;8.43;;;4.60;;
51654;SDS011;37732;53.106;7.030;2022-12-20T07:15:43;9.60;;;5.68;;
51654;SDS011;37732;53.106;7.030;2022-12-20T07:18:08;6.90;;;4.88;;
51654;SDS011;37732;53.106;7.030;2022-12-20T07:20:34;7.85;;;5.07;;
51654;SDS011;37732;53.106;7.030;2022-12-20T07:23:00;9.32;;;5.15;;
51654;SDS011;37732;53.106;7.030;2022-12-20T07:25:25;8.93;;;5.80;;
51654;SDS011;37732;53.106;7.030;2022-12-20T07:27:51;5.68;;;4.45;;
51654;SDS011;37732;53.106;7.030;2022-12-20T07:30:17;8.43;;;5.30;;
51654;SDS011;37732;53.106;7.030;2022-12-20T07:32:44;10.35;;;6.10;;
51654;SDS011;37732;53.106;7.030;2022-12-20T07:35:11;7.88;;;5.88;;
51654;SDS011;37732;53.106;7.030;2022-12-20T07:37:37;6.88;;;5.47;;
51654;SDS011;37732;53.106;7.030;2022-12-20T07:40:03;7.97;;;6.25;;
51654;SDS011;37732;53.106;7.030;2022-12-20T07:42:30;9.00;;;6.43;;
51654;SDS011;37732;53.106;7.030;2022-12-20T07:44:56;8.98;;;5.30;;
51654;SDS011;37732;53.106;7.030;2022-12-20T07:47:21;8.05;;;6.13;;
51654;SDS011;37732;53.106;7.030;2022-12-20T07:49:47;9.77;;;6.25;;
51654;SDS011;37732;53.106;7.030;2022-12-20T07:52:16;7.85;;;6.15;;
51654;SDS011;37732;53.106;7.030;2022-12-20T07:54:46;10.52;;;6.70;;
51654;SDS011;37732;53.106;7.030;2022-12-20T07:57:22;9.80;;;6.38;;
51654;SDS011;37732;53.106;7.030;2022-12-20T07:59:54;8.95;;;5.97;;
51654;SDS011;37732;53.106;7.030;2022-12-20T08:02:27;9.38;;;5.90;;
51654;SDS011;37732;53.106;7.030;2022-12-20T08:05:01;9.43;;;6.30;;
51654;SDS011;37732;53.106;7.030;2022-12-20T08:07:29;8.13;;;6.55;;
51654;SDS011;37732;53.106;7.030;2022-12-20T08:09:55;8.93;;;6.22;;
51654;SDS011;37732;53.106;7.030;2022-12-20T08:12:22;8.52;;;6.85;;
51654;SDS011;37732;53.106;7.030;2022-12-20T08:14:50;8.90;;;6.15;;
51654;SDS011;37732;53.106;7.030;2022-12-20T08:17:20;8.38;;;6.82;;
51654;SDS011;37732;53.106;7.030;2022-12-20T08:19:46;8.82;;;6.55;;
51654;SDS011;37732;53.106;7.030;2022-12-20T08:22:13;8.20;;;6.50;;
51654;SDS011;37732;53.106;7.030;2022-12-20T08:24:39;9.88;;;6.85;;
51654;SDS011;37732;53.106;7.030;2022-12-20T08:27:04;10.73;;;6.65;;
51654;SDS011;37732;53.106;7.030;2022-12-20T08:29:30;8.38;;;6.18;;
51654;SDS011;37732;53.106;7.030;2022-12-20T08:31:56;8.75;;;5.32;;
51654;SDS011;37732;53.106;7.030;2022-12-20T08:34:21;8.90;;;5.85;;
51654;SDS011;37732;53.106;7.030;2022-12-20T08:36:47;7.82;;;5.60;;
51654;SDS011;37732;53.106;7.030;2022-12-20T08:39:12;8.32;;;5.63;;
51654;SDS011;37732;53.106;7.030;2022-12-20T08:41:38;7.13;;;5.53;;
51654;SDS011;37732;53.106;7.030;2022-12-20T08:44:04;9.00;;;5.28;;
51654;SDS011;37732;53.106;7.030;2022-12-20T08:46:30;7.28;;;5.25;;
51654;SDS011;37732;53.106;7.030;2022-12-20T08:48:56;7.72;;;4.45;;
51654;SDS011;37732;53.106;7.030;2022-12-20T08:51:22;6.63;;;4.72;;
51654;SDS011;37732;53.106;7.030;2022-12-20T08:53:47;6.15;;;4.68;;
51654;SDS011;37732;53.106;7.030;2022-12-20T08:56:14;6.70;;;4.75;;
51654;SDS011;37732;53.106;7.030;2022-12-20T08:58:41;8.88;;;4.95;;
51654;SDS011;37732;53.106;7.030;2022-12-20T09:01:09;5.95;;;4.20;;
51654;SDS011;37732;53.106;7.030;2022-12-20T09:03:37;7.65;;;4.32;;
51654;SDS011;37732;53.106;7.030;2022-12-20T09:06:04;7.20;;;4.05;;
51654;SDS011;37732;53.106;7.030;2022-12-20T09:08:33;7.70;;;3.90;;
51654;SDS011;37732;53.106;7.030;2022-12-20T09:11:19;6.78;;;4.00;;
51654;SDS011;37732;53.106;7.030;2022-12-20T09:13:47;7.43;;;4.45;;
51654;SDS011;37732;53.106;7.030;2022-12-20T09:16:15;6.05;;;3.90;;
51654;SDS011;37732;53.106;7.030;2022-12-20T09:18:46;5.75;;;3.70;;
51654;SDS011;37732;53.106;7.030;2022-12-20T09:21:17;5.75;;;3.97;;
51654;SDS011;37732;53.106;7.030;2022-12-20T09:23:44;6.25;;;4.03;;
51654;SDS011;37732;53.106;7.030;2022-12-20T09:26:11;5.82;;;3.05;;
51654;SDS011;37732;53.106;7.030;2022-12-20T09:28:41;6.43;;;3.92;;
51654;SDS011;37732;53.106;7.030;2022-12-20T09:31:10;7.40;;;4.43;;
51654;SDS011;37732;53.106;7.030;2022-12-20T09:33:39;6.60;;;3.95;;
51654;SDS011;37732;53.106;7.030;2022-12-20T09:36:06;6.50;;;3.60;;
51654;SDS011;37732;53.106;7.030;2022-12-20T09:38:34;6.32;;;3.75;;
51654;SDS011;37732;53.106;7.030;2022-12-20T09:41:02;5.85;;;4.03;;
51654;SDS011;37732;53.106;7.030;2022-12-20T09:43:29;7.82;;;4.35;;
51654;SDS011;37732;53.106;7.030;2022-12-20T09:45:57;6.55;;;3.95;;
51654;SDS011;37732;53.106;7.030;2022-12-20T09:48:26;10.18;;;4.07;;
51654;SDS011;37732;53.106;7.030;2022-12-20T09:51:00;7.28;;;3.72;;
51654;SDS011;37732;53.106;7.030;2022-12-20T09:56:55;10.00;;;4.68;;
51654;SDS011;37732;53.106;7.030;2022-12-20T09:59:32;7.55;;;4.20;;
51654;SDS011;37732;53.106;7.030;2022-12-20T10:01:59;7.88;;;4.25;;
51654;SDS011;37732;53.106;7.030;2022-12-20T10:04:29;5.38;;;3.58;;
51654;SDS011;37732;53.106;7.030;2022-12-20T10:09:53;7.25;;;3.85;;
51654;SDS011;37732;53.106;7.030;2022-12-20T10:22:52;9.05;;;3.65;;
51654;SDS011;37732;53.106;7.030;2022-12-20T10:25:25;6.68;;;4.45;;
51654;SDS011;37732;53.106;7.030;2022-12-20T10:27:55;6.82;;;3.47;;
51654;SDS011;37732;53.106;7.030;2022-12-20T10:30:22;7.70;;;4.03;;
51654;SDS011;37732;53.106;7.030;2022-12-20T10:32:51;6.95;;;4.15;;
51654;SDS011;37732;53.106;7.030;2022-12-20T10:37:57;5.35;;;3.92;;
51654;SDS011;37732;53.106;7.030;2022-12-20T10:40:27;8.85;;;4.32;;
51654;SDS011;37732;53.106;7.030;2022-12-20T10:42:56;7.40;;;4.20;;
51654;SDS011;37732;53.106;7.030;2022-12-20T10:48:00;5.40;;;3.75;;
51654;SDS011;37732;53.106;7.030;2022-12-20T10:50:28;7.60;;;4.63;;
51654;SDS011;37732;53.106;7.030;2022-12-20T10:53:11;7.00;;;4.13;;
51654;SDS011;37732;53.106;7.030;2022-12-20T10:55:46;7.07;;;4.13;;
51654;SDS011;37732;53.106;7.030;2022-12-20T10:58:16;7.97;;;4.30;;
51654;SDS011;37732;53.106;7.030;2022-12-20T11:00:47;9.98;;;4.70;;
51654;SDS011;37732;53.106;7.030;2022-12-20T11:05:59;6.57;;;4.50;;
51654;SDS011;37732;53.106;7.030;2022-12-20T11:08:29;7.95;;;5.05;;
51654;SDS011;37732;53.106;7.030;2022-12-20T11:11:13;6.05;;;4.45;;
51654;SDS011;37732;53.106;7.030;2022-12-20T11:13:47;7.90;;;4.57;;
51654;SDS011;37732;53.106;7.030;2022-12-20T11:16:28;8.73;;;4.97;;
51654;SDS011;37732;53.106;7.030;2022-12-20T11:54:55;7.38;;;4.28;;
51654;SDS011;37732;53.106;7.030;2022-12-20T11:57:05;6.77;;;4.70;;
51654;SDS011;37732;53.106;7.030;2022-12-20T12:05:05;6.47;;;4.30;;
51654;SDS011;37732;53.106;7.030;2022-12-20T12:07:40;6.90;;;4.20;;
51654;SDS011;37732;53.106;7.030;2022-12-20T12:10:16;11.88;;;4.43;;
51654;SDS011;37732;53.106;7.030;2022-12-20T12:13:10;7.18;;;4.75;;
51654;SDS011;37732;53.106;7.030;2022-12-20T12:18:22;7.22;;;4.55;;
51654;SDS011;37732;53.106;7.030;2022-12-20T12:26:01;6.53;;;4.63;;
51654;SDS011;37732;53.106;7.030;2022-12-20T12:28:59;6.10;;;3.85;;
51654;SDS011;37732;53.106;7.030;2022-12-20T12:31:28;7.88;;;3.88;;
51654;SDS011;37732;53.106;7.030;2022-12-20T12:34:12;7.45;;;4.53;;
51654;SDS011;37732;53.106;7.030;2022-12-20T12:45:23;7.90;;;4.43;;
51654;SDS011;37732;53.106;7.030;2022-12-20T12:48:15;6.13;;;4.45;;
51654;SDS011;37732;53.106;7.030;2022-12-20T12:50:51;7.70;;;4.88;;
51654;SDS011;37732;53.106;7.030;2022-12-20T12:53:19;6.10;;;4.45;;
51654;SDS011;37732;53.106;7.030;2022-12-20T12:55:52;8.10;;;5.10;;
51654;SDS011;37732;53.106;7.030;2022-12-20T13:03:33;7.72;;;5.57;;
51654;SDS011;37732;53.106;7.030;2022-12-20T13:07:24;7.85;;;5.75;;
51654;SDS011;37732;53.106;7.030;2022-12-20T13:11:49;9.23;;;5.53;;
51654;SDS011;37732;53.106;7.030;2022-12-20T13:16:45;7.57;;;5.68;;
51654;SDS011;37732;53.106;7.030;2022-12-20T13:21:45;7.68;;;5.22;;
51654;SDS011;37732;53.106;7.030;2022-12-20T13:24:36;7.70;;;6.32;;
51654;SDS011;37732;53.106;7.030;2022-12-20T13:27:15;7.40;;;5.55;;
51654;SDS011;37732;53.106;7.030;2022-12-20T13:29:52;8.68;;;5.88;;
51654;SDS011;37732;53.106;7.030;2022-12-20T13:45:48;9.20;;;6.88;;
51654;SDS011;37732;53.106;7.030;2022-12-20T13:51:15;9.38;;;7.32;;
51654;SDS011;37732;53.106;7.030;2022-12-20T13:53:50;9.63;;;6.93;;
51654;SDS011;37732;53.106;7.030;2022-12-20T13:58:58;8.15;;;6.45;;
51654;SDS011;37732;53.106;7.030;2022-12-20T14:01:46;9.48;;;7.00;;
51654;SDS011;37732;53.106;7.030;2022-12-20T14:04:18;10.95;;;7.45;;
51654;SDS011;37732;53.106;7.030;2022-12-20T14:06:55;8.95;;;7.45;;
51654;SDS011;37732;53.106;7.030;2022-12-20T14:09:31;10.93;;;7.50;;
51654;SDS011;37732;53.106;7.030;2022-12-20T14:14:47;8.50;;;7.45;;
51654;SDS011;37732;53.106;7.030;2022-12-20T14:17:23;9.40;;;7.38;;
51654;SDS011;37732;53.106;7.030;2022-12-20T14:20:01;9.02;;;6.53;;
51654;SDS011;37732;53.106;7.030;2022-12-20T14:22:30;8.30;;;7.13;;
51654;SDS011;37732;53.106;7.030;2022-12-20T14:24:57;8.38;;;6.90;;
51654;SDS011;37732;53.106;7.030;2022-12-20T14:27:23;8.55;;;6.40;;
51654;SDS011;37732;53.106;7.030;2022-12-20T14:29:51;8.07;;;7.28;;
51654;SDS011;37732;53.106;7.030;2022-12-20T14:32:17;8.60;;;6.97;;
51654;SDS011;37732;53.106;7.030;2022-12-20T14:34:44;8.57;;;6.97;;
51654;SDS011;37732;53.106;7.030;2022-12-20T14:39:53;7.57;;;6.55;;
51654;SDS011;37732;53.106;7.030;2022-12-20T14:42:22;8.98;;;7.68;;
51654;SDS011;37732;53.106;7.030;2022-12-20T14:45:03;7.90;;;6.97;;
51654;SDS011;37732;53.106;7.030;2022-12-20T14:47:45;8.52;;;6.68;;
51654;SDS011;37732;53.106;7.030;2022-12-20T14:50:35;8.73;;;7.65;;
51654;SDS011;37732;53.106;7.030;2022-12-20T14:53:02;9.02;;;7.75;;
51654;SDS011;37732;53.106;7.030;2022-12-20T14:55:37;10.63;;;8.18;;
51654;SDS011;37732;53.106;7.030;2022-12-20T14:58:25;9.18;;;8.20;;
51654;SDS011;37732;53.106;7.030;2022-12-20T15:01:12;9.18;;;8.13;;
51654;SDS011;37732;53.106;7.030;2022-12-20T15:04:17;8.93;;;7.95;;
51654;SDS011;37732;53.106;7.030;2022-12-20T15:06:45;10.93;;;8.43;;
51654;SDS011;37732;53.106;7.030;2022-12-20T15:09:16;10.20;;;8.38;;
51654;SDS011;37732;53.106;7.030;2022-12-20T15:11:42;10.15;;;8.35;;
51654;SDS011;37732;53.106;7.030;2022-12-20T15:16:52;9.93;;;8.70;;
51654;SDS011;37732;53.106;7.030;2022-12-20T15:19:18;10.18;;;8.80;;
51654;SDS011;37732;53.106;7.030;2022-12-20T15:21:44;9.27;;;8.23;;
51654;SDS011;37732;53.106;7.030;2022-12-20T15:24:13;11.10;;;9.18;;
51654;SDS011;37732;53.106;7.030;2022-12-20T15:26:42;9.88;;;8.88;;
51654;SDS011;37732;53.106;7.030;2022-12-20T15:29:12;11.73;;;10.52;;
51654;SDS011;37732;53.106;7.030;2022-12-20T15:31:41;12.75;;;10.60;;
51654;SDS011;37732;53.106;7.030;2022-12-20T15:34:18;12.38;;;11.18;;
51654;SDS011;37732;53.106;7.030;2022-12-20T15:36:53;11.38;;;10.27;;
51654;SDS011;37732;53.106;7.030;2022-12-20T15:39:18;13.77;;;11.45;;
51654;SDS011;37732;53.106;7.030;2022-12-20T15:41:46;13.15;;;11.85;;
51654;SDS011;37732;53.106;7.030;2022-12-20T15:44:15;13.40;;;11.68;;
51654;SDS011;37732;53.106;7.030;2022-12-20T15:46:43;13.95;;;11.68;;
51654;SDS011;37732;53.106;7.030;2022-12-20T15:49:11;16.17;;;12.63;;
51654;SDS011;37732;53.106;7.030;2022-12-20T15:51:39;16.48;;;12.57;;
51654;SDS011;37732;53.106;7.030;2022-12-20T15:54:15;16.60;;;13.38;;
51654;SDS011;37732;53.106;7.030;2022-12-20T15:56:56;14.43;;;12.80;;
51654;SDS011;37732;53.106;7.030;2022-12-20T15:59:23;15.57;;;13.98;;
51654;SDS011;37732;53.106;7.030;2022-12-20T16:01:49;15.95;;;14.25;;
51654;SDS011;37732;53.106;7.030;2022-12-20T16:04:15;16.02;;;14.10;;
51654;SDS011;37732;53.106;7.030;2022-12-20T16:06:43;16.45;;;14.75;;
51654;SDS011;37732;53.106;7.030;2022-12-20T16:09:11;17.55;;;15.75;;
51654;SDS011;37732;53.106;7.030;2022-12-20T16:11:37;16.15;;;14.45;;
51654;SDS011;37732;53.106;7.030;2022-12-20T16:14:04;15.32;;;13.82;;
51654;SDS011;37732;53.106;7.030;2022-12-20T16:16:32;18.30;;;15.45;;
51654;SDS011;37732;53.106;7.030;2022-12-20T16:19:00;18.05;;;16.15;;
51654;SDS011;37732;53.106;7.030;2022-12-20T16:21:31;21.05;;;16.08;;
51654;SDS011;37732;53.106;7.030;2022-12-20T16:24:00;17.75;;;16.05;;
51654;SDS011;37732;53.106;7.030;2022-12-20T16:26:26;18.52;;;15.85;;
51654;SDS011;37732;53.106;7.030;2022-12-20T16:28:53;18.30;;;16.33;;
51654;SDS011;37732;53.106;7.030;2022-12-20T16:33:55;22.10;;;16.17;;
51654;SDS011;37732;53.106;7.030;2022-12-20T16:36:22;22.13;;;17.83;;
51654;SDS011;37732;53.106;7.030;2022-12-20T16:38:48;19.40;;;17.33;;
51654;SDS011;37732;53.106;7.030;2022-12-20T16:43:45;18.33;;;16.45;;
51654;SDS011;37732;53.106;7.030;2022-12-20T16:46:12;18.40;;;16.52;;
51654;SDS011;37732;53.106;7.030;2022-12-20T16:48:40;18.40;;;16.55;;
51654;SDS011;37732;53.106;7.030;2022-12-20T16:53:44;17.83;;;16.02;;
51654;SDS011;37732;53.106;7.030;2022-12-20T16:56:10;18.70;;;16.63;;
51654;SDS011;37732;53.106;7.030;2022-12-20T16:58:37;18.65;;;16.42;;
51654;SDS011;37732;53.106;7.030;2022-12-20T17:01:03;19.40;;;16.95;;
51654;SDS011;37732;53.106;7.030;2022-12-20T17:03:28;18.08;;;16.27;;
51654;SDS011;37732;53.106;7.030;2022-12-20T17:05:54;18.90;;;17.00;;
51654;SDS011;37732;53.106;7.030;2022-12-20T17:08:21;18.75;;;16.85;;
51654;SDS011;37732;53.106;7.030;2022-12-20T17:10:47;17.42;;;15.63;;
51654;SDS011;37732;53.106;7.030;2022-12-20T17:13:12;18.58;;;16.67;;
51654;SDS011;37732;53.106;7.030;2022-12-20T17:15:38;19.60;;;16.65;;
51654;SDS011;37732;53.106;7.030;2022-12-20T17:18:05;18.10;;;16.35;;